createdAt,value
2023-03-02T00:01:40.288Z,101333.80
2023-03-02T00:06:44.244Z,101325.40
2023-03-02T00:11:48.327Z,101326.60
2023-03-02T00:16:52.336Z,101322.40
2023-03-02T00:21:56.488Z,101316.00
2023-03-02T00:27:00.179Z,101313.40
2023-03-02T00:32:07.117Z,101305.40
2023-03-02T00:37:11.388Z,101298.00
2023-03-02T00:42:15.074Z,101301.00
2023-03-02T00:47:18.885Z,101296.20
2023-03-02T00:52:22.750Z,101294.80
2023-03-02T00:57:27.289Z,101292.60
2023-03-02T01:02:32.673Z,101288.20
2023-03-02T01:07:36.595Z,101285.40
2023-03-02T01:12:40.984Z,101283.80
2023-03-02T01:17:44.986Z,101276.20
2023-03-02T01:22:48.832Z,101281.40
2023-03-02T01:27:56.371Z,101284.80
2023-03-02T01:33:00.113Z,101283.40
2023-03-02T01:38:07.463Z,101278.60
2023-03-02T01:43:17.053Z,101270.80
2023-03-02T01:48:47.347Z,101265.20
2023-03-02T01:54:01.466Z,101254.20
2023-03-02T01:59:12.405Z,101251.60
2023-03-02T02:12:46.649Z,101247.40
2023-03-02T02:17:54.797Z,101239.00
2023-03-02T02:23:49.247Z,101240.40
2023-03-02T02:29:01.060Z,101239.00
2023-03-02T02:34:23.055Z,101233.80
2023-03-02T02:39:33.908Z,101230.80
2023-03-02T02:44:37.949Z,101235.20
2023-03-02T02:49:42.693Z,101233.80
2023-03-02T02:54:51.622Z,101230.00
2023-03-02T03:00:00.947Z,101220.60
2023-03-02T03:05:05.705Z,101228.00
2023-03-02T03:10:40.469Z,101230.60
2023-03-02T03:15:44.501Z,101242.00
2023-03-02T03:21:39.228Z,101240.20
2023-03-02T03:26:43.870Z,101229.20
2023-03-02T03:31:47.594Z,101229.40
2023-03-02T03:37:41.602Z,101229.00
2023-03-02T03:42:45.489Z,101236.20
2023-03-02T03:47:49.330Z,101229.00
2023-03-02T03:52:53.063Z,101227.20
2023-03-02T03:58:22.571Z,101228.40
2023-03-02T04:03:27.459Z,101220.40
2023-03-02T04:08:31.271Z,101224.00
2023-03-02T04:13:34.986Z,101228.80
2023-03-02T04:18:38.809Z,101229.00
2023-03-02T04:25:00.164Z,101231.40
2023-03-02T04:30:05.345Z,101231.00
2023-03-02T04:35:09.990Z,101228.20
2023-03-02T04:40:15.802Z,101218.60
2023-03-02T04:45:20.004Z,101221.20
2023-03-02T04:50:24.216Z,101222.80
2023-03-02T04:55:28.861Z,101228.00
2023-03-02T05:00:34.656Z,101219.80
2023-03-02T05:05:38.946Z,101217.40
2023-03-02T05:10:42.852Z,101214.60
2023-03-02T05:24:17.230Z,101224.60
2023-03-02T05:29:21.534Z,101225.60
2023-03-02T05:35:16.768Z,101224.00
2023-03-02T06:01:33.026Z,101232.80
2023-03-02T06:06:37.552Z,101232.60
2023-03-02T06:18:49.842Z,101236.80
2023-03-02T06:24:44.535Z,101238.80
2023-03-02T06:29:48.517Z,101239.60
2023-03-02T06:34:52.466Z,101237.20
2023-03-02T06:39:58.255Z,101241.20
2023-03-02T06:45:02.519Z,101233.60
2023-03-02T06:50:07.565Z,101231.40
2023-03-02T06:55:33.296Z,101232.20
2023-03-02T07:01:54.964Z,101232.40
2023-03-02T07:06:59.010Z,101235.00
2023-03-02T07:18:56.230Z,101227.00
2023-03-02T07:24:50.474Z,101226.80
2023-03-02T07:30:21.584Z,101228.40
2023-03-02T07:35:26.072Z,101231.00
2023-03-02T07:40:55.261Z,101227.00
2023-03-02T07:52:48.385Z,101239.40
2023-03-02T07:57:52.543Z,101237.40
2023-03-02T08:02:56.380Z,101241.60
2023-03-02T08:08:00.196Z,101245.40
2023-03-02T08:20:12.930Z,101246.40
2023-03-02T08:25:17.099Z,101247.00
2023-03-02T08:30:21.131Z,101251.20
2023-03-02T08:35:26.756Z,101250.20
2023-03-02T08:40:56.420Z,101252.60
2023-03-02T08:47:23.070Z,101250.20
2023-03-02T08:52:27.284Z,101242.80
2023-03-02T08:57:48.090Z,101243.80
2023-03-02T09:03:42.599Z,101242.80
2023-03-02T09:16:20.689Z,101233.00
2023-03-02T09:30:00.175Z,101211.60
2023-03-02T09:35:55.571Z,101212.40
2023-03-02T09:41:21.481Z,101211.80
2023-03-02T09:53:44.906Z,101209.60
2023-03-02T09:59:31.769Z,101204.00
2023-03-02T10:12:26.476Z,101200.00
2023-03-02T10:18:11.725Z,101195.00
2023-03-02T10:23:35.366Z,101195.80
2023-03-02T10:28:49.809Z,101193.80
2023-03-02T10:34:28.390Z,101193.80
2023-03-02T10:39:34.402Z,101191.00
2023-03-02T10:44:46.229Z,101191.80
2023-03-02T10:50:53.798Z,101181.80
2023-03-02T11:14:38.972Z,101163.00
2023-03-02T11:19:44.457Z,101159.60
2023-03-02T11:24:58.971Z,101152.40
2023-03-02T11:30:23.494Z,101148.40
2023-03-02T11:35:44.461Z,101143.40
2023-03-02T11:40:53.452Z,101137.80
2023-03-02T11:49:19.537Z,101139.60
2023-03-02T11:54:46.595Z,101133.80
2023-03-02T11:59:52.881Z,101131.60
2023-03-02T12:05:25.230Z,101131.00
2023-03-02T12:10:44.012Z,101127.40
2023-03-02T12:15:51.295Z,101123.20
2023-03-02T12:21:39.543Z,101119.40
2023-03-02T12:26:43.335Z,101116.80
2023-03-02T12:31:56.077Z,101110.80
2023-03-02T12:37:08.026Z,101103.60
2023-03-02T12:42:44.280Z,101089.20
2023-03-02T12:48:02.273Z,101080.60
2023-03-02T12:53:17.798Z,101078.00
2023-03-02T12:58:28.782Z,101076.60
2023-03-02T13:03:32.705Z,101067.80
2023-03-02T13:08:38.606Z,101071.60
2023-03-02T13:13:45.670Z,101064.80
2023-03-02T13:18:57.499Z,101060.80
2023-03-02T13:24:02.951Z,101054.20
2023-03-02T13:29:15.138Z,101046.40
2023-03-02T13:34:33.516Z,101030.80
2023-03-02T13:39:37.755Z,101028.60
2023-03-02T13:44:41.668Z,101025.00
2023-03-02T13:49:46.058Z,101010.40
2023-03-02T13:54:50.194Z,101029.20
2023-03-02T13:59:55.397Z,100985.20
2023-03-02T14:04:59.408Z,100944.80
2023-03-02T14:10:04.806Z,100920.60
2023-03-02T14:15:15.680Z,100916.40
2023-03-02T14:20:21.220Z,100940.40
2023-03-02T14:25:25.181Z,100881.80
2023-03-02T14:30:29.494Z,100895.60
2023-03-02T14:35:33.758Z,101006.40
2023-03-02T14:40:38.514Z,100901.80
2023-03-02T14:45:42.438Z,100905.00
2023-03-02T14:50:50.878Z,100908.20
2023-03-02T14:55:55.321Z,100910.40
2023-03-02T15:01:00.357Z,100917.80
2023-03-02T15:06:08.052Z,100917.60
2023-03-02T15:11:12.910Z,100927.40
2023-03-02T15:16:17.934Z,100922.20
2023-03-02T15:21:25.266Z,100924.20
2023-03-02T15:26:29.697Z,100968.80
2023-03-02T15:31:35.329Z,100962.60
2023-03-02T15:36:41.783Z,100956.40
2023-03-02T15:41:47.992Z,100943.60
2023-03-02T15:46:58.946Z,100938.00
2023-03-02T15:52:03.201Z,100929.80
2023-03-02T15:57:11.625Z,100930.20
2023-03-02T16:02:17.836Z,100932.60
2023-03-02T16:07:21.637Z,100924.00
2023-03-02T16:12:28.046Z,100920.80
2023-03-02T16:17:33.530Z,100912.00
2023-03-02T16:22:39.469Z,100915.00
2023-03-02T16:27:48.649Z,100912.60
2023-03-02T16:32:52.751Z,100909.80
2023-03-02T16:37:56.700Z,100912.20
2023-03-02T16:43:00.724Z,100917.00
2023-03-02T16:48:06.564Z,100908.40
2023-03-02T16:53:10.506Z,100910.20
2023-03-02T16:58:14.774Z,100904.40
2023-03-02T17:03:19.118Z,100904.20
2023-03-02T17:08:23.016Z,100904.60
2023-03-02T17:13:27.452Z,100911.20
2023-03-02T17:18:35.449Z,100912.20
2023-03-02T17:23:42.494Z,100909.60
2023-03-02T17:28:46.847Z,100903.40
2023-03-02T17:33:51.577Z,100897.60
2023-03-02T17:38:55.298Z,100895.00
2023-03-02T17:44:03.636Z,100893.40
2023-03-02T17:49:07.378Z,100879.60
2023-03-02T17:54:11.472Z,100881.00
2023-03-02T17:59:16.263Z,100884.80
2023-03-02T18:04:20.683Z,100883.60
2023-03-02T18:09:24.687Z,100876.80
2023-03-02T18:14:32.060Z,100866.60
2023-03-02T18:19:37.849Z,100871.80
2023-03-02T18:24:42.680Z,100873.40
2023-03-02T18:29:46.891Z,100875.60
2023-03-02T18:34:51.055Z,100870.40
2023-03-02T18:39:56.464Z,100867.80
2023-03-02T18:45:01.220Z,100872.80
2023-03-02T18:50:06.022Z,100870.20
2023-03-02T18:55:12.477Z,100876.80
2023-03-02T19:00:27.369Z,100873.00
2023-03-02T19:05:31.896Z,100874.60
2023-03-02T19:10:39.047Z,100872.00
2023-03-02T19:15:44.368Z,100873.00
2023-03-02T19:20:51.564Z,100866.00
2023-03-02T19:25:57.034Z,100863.00
2023-03-02T19:31:09.698Z,100861.20
2023-03-02T19:36:14.609Z,100857.60
2023-03-02T19:41:21.529Z,100852.40
2023-03-02T19:46:27.486Z,100843.60
2023-03-02T19:51:33.100Z,100850.80
2023-03-02T19:56:40.651Z,100841.20
2023-03-02T20:01:44.990Z,100848.80
2023-03-02T20:06:49.826Z,100847.20
2023-03-02T20:11:54.673Z,100843.20
2023-03-02T20:16:58.850Z,100838.40
2023-03-02T20:22:04.072Z,100837.20
2023-03-02T20:27:09.091Z,100830.80
2023-03-02T20:32:14.888Z,100819.20
2023-03-02T20:37:18.995Z,100818.80
2023-03-02T20:42:25.490Z,100817.40
2023-03-02T20:47:30.755Z,100811.60
2023-03-02T20:52:35.333Z,100807.60
2023-03-02T20:57:39.693Z,100806.40
2023-03-02T21:02:46.147Z,100807.80
2023-03-02T21:07:52.939Z,100797.80
2023-03-02T21:12:56.784Z,100802.20
2023-03-02T21:18:03.805Z,100795.60
2023-03-02T21:23:11.491Z,100796.00
2023-03-02T21:28:15.518Z,100794.00
2023-03-02T21:33:19.455Z,100781.40
2023-03-02T21:38:23.614Z,100774.60
2023-03-02T21:43:27.637Z,100765.20
2023-03-02T21:48:32.404Z,100754.80
2023-03-02T21:53:38.971Z,100758.40
2023-03-02T21:58:43.186Z,100761.80
2023-03-02T22:03:47.108Z,100769.80
2023-03-02T22:08:51.963Z,100758.60
2023-03-02T22:14:00.948Z,100758.00
2023-03-02T22:19:27.332Z,100758.60
2023-03-02T22:24:34.106Z,100743.40
2023-03-02T22:29:48.122Z,100743.40
2023-03-02T22:34:56.306Z,100733.80
2023-03-02T22:40:27.817Z,100733.80
2023-03-02T22:45:31.951Z,100731.00
2023-03-02T22:50:37.423Z,100724.40
2023-03-02T22:55:43.690Z,100714.00
2023-03-02T23:00:48.958Z,100707.80
2023-03-02T23:05:53.597Z,100705.00
2023-03-02T23:10:59.735Z,100705.20
2023-03-02T23:16:26.248Z,100705.60
2023-03-02T23:21:42.236Z,100697.60
2023-03-02T23:26:46.182Z,100678.40
2023-03-02T23:31:50.819Z,100674.60
2023-03-02T23:36:54.556Z,100668.60
2023-03-02T23:41:58.444Z,100657.00
2023-03-02T23:47:02.411Z,100652.20
2023-03-02T23:52:06.349Z,100639.20
2023-03-02T23:57:10.368Z,100641.60
